Accueil
METAR-TAF:

METAR-TAF

Aéroports :

Sanford Seacoast Regional Airport

Sanford, Maine, États-Unis

latitude: 43-24N, longitude: 070-43W, altitude: 74 m

Observation

Le bulletin a été fait il y a 23 minutes, à 18:56 UTC
Vent 16 kt de ouest/nord-ouest avec des rafales jusqu'à 21 kt
Température 6°C
Humidité 65%
Pression 986 hPa
Visibilité: 16.1 km
Quelques nuages à une hauteur de 5500 ft

METAR: KSFM 101856Z AUTO 30016G21KT 10SM FEW055 06/00 A2911 RMK AO2 PK WND 28026/1810 RAE36 SLP861 P0000 T00560000

Heure: 15:19 (19:19 UTC)


TAF: absent

Observations et prévisions météorologiques de plus de 4000 aéroports (messages METAR et TAF).

Les stations disponibles sont représentées par des disques jaunes et rouges sur la carte.

Passer la souris dessus pour voir le nom de la station.

Cliquer dessus pour voir les observations et prévisions météorologiques.

Pour changer de carte: cliquez sur les boutons verts avec une croix noire pour zoomer, sur le bouton vert avec un tiret pour effectuer un zoom arrière, ou sur les flèches vertes pour les cartes adjacentes.


METAR-TAF: